Palmdale Regional/USAF Plant 42 Airport
KPMD : rendu visible

Aérodrome :











RETROUVEZ-NOUS SUR...

 
LOGIN :

S'inscrire | Disclaimer

   EN    FR    IT 

 









Légende :    VFR   VFR Marginal   IFR   IFR Intensif   IFR Très Intensif
Visi : 
Plafond : 
>= 8 km
>= 3000ft
5 à 8 km
1000 à 3000 ft
1500m à 5 km
500 à 1000 ft
800 à 1500m
200 à 500 ft
< 800m
< 200 ft
Symboles :   Orages  Brouillard  Fortes neiges  Fortes précipitations  Vent > 20 kt






- Altitude de l'aérodrome : 2543 ft
- Code IATA : PMD


KPMD - Palmdale Regional/USAF Plant 42

DERNIER METAR :
  • 201653Z 20015KT 10SM FEW110 09/04 A2953 RMK AO2 RAE16 SLP991 P0000 T00940039

METARs EXPIRÉS :
  • 201553Z 22014KT 10SM -RA BKN036 BKN043 OVC065 08/05 A2953 RMK AO2 RAB33 SLP990 P0000 T00830050
  • 201453Z 24008KT 10SM FEW044 FEW070 SCT080 09/03 A2950 RMK AO2 SLP976 T00890033 53003

TAF KPMD
Valide du 20 à 16h jusqu'au 21 à 12h UTC


201624Z 2016/2112 22012KT P6SM -SHRA BKN040 OVC080
FM201800 23015KT 5SM -SHRA BKN025 OVC040
FM202100 23015KT P6SM -SHRA BKN035 OVC050
FM210300 23008KT P6SM VCSH SCT035 BKN150



MET'MAP, la Météo Aéronautique d'un coup d'oeil ! - Copyright ORBIFLY Décembre 2007 - Disclaimer

ORBIFLY MET'MAP TEAM :

Programmation & Développement : Alexandra Zaïnal
Conception & Développement : Baudouin d'Aumeries
Co-Programmation & Développement : Marc-Olivier Méhu
Soutien technique & logistique : Manuel Goepfert

Contact : metmap@orbifly.com




SOURCES & CREDITS :

   NOAA       Earth
Advisory